createdAt,value
2022-09-14T00:02:09.915Z,16.89
2022-09-14T00:05:18.425Z,16.92
2022-09-14T00:08:26.577Z,16.81
2022-09-14T00:11:38.122Z,16.86
2022-09-14T00:14:47.784Z,16.81
2022-09-14T00:17:55.970Z,16.84
2022-09-14T00:21:07.589Z,16.79
2022-09-14T00:24:15.854Z,16.93
2022-09-14T00:27:24.249Z,16.80
2022-09-14T00:30:37.965Z,16.84
2022-09-14T00:33:49.035Z,16.80
2022-09-14T00:37:01.817Z,16.79
2022-09-14T00:40:12.413Z,16.81
2022-09-14T00:43:21.075Z,16.75
2022-09-14T00:46:36.138Z,16.72
2022-09-14T00:49:45.345Z,16.70
2022-09-14T00:52:56.919Z,16.73
2022-09-14T00:56:05.244Z,16.92
2022-09-14T00:59:18.965Z,16.99
2022-09-14T01:02:31.640Z,16.91
2022-09-14T01:06:05.358Z,16.76
2022-09-14T01:09:34.547Z,16.66
2022-09-14T01:13:00.268Z,16.64
2022-09-14T01:16:21.961Z,16.59
2022-09-14T01:20:05.201Z,16.60
2022-09-14T01:23:23.581Z,16.69
2022-09-14T01:26:59.928Z,16.74
2022-09-14T01:30:13.783Z,16.63
2022-09-14T01:33:31.434Z,16.66
2022-09-14T01:36:45.549Z,16.63
2022-09-14T01:40:02.302Z,16.57
2022-09-14T01:43:17.705Z,16.59
2022-09-14T01:46:34.977Z,16.65
2022-09-14T01:49:52.127Z,16.57
2022-09-14T01:53:11.352Z,16.51
2022-09-14T01:56:25.466Z,16.58
2022-09-14T01:59:40.269Z,16.75
2022-09-14T02:02:56.184Z,16.74
2022-09-14T02:06:16.978Z,16.60
2022-09-14T02:09:27.665Z,16.51
2022-09-14T02:12:36.270Z,16.49
2022-09-14T02:15:44.776Z,16.57
2022-09-14T02:18:54.923Z,16.62
2022-09-14T02:22:03.279Z,16.55
2022-09-14T02:25:13.888Z,16.64
2022-09-14T02:28:22.088Z,16.53
2022-09-14T02:31:46.531Z,16.49
2022-09-14T02:35:11.278Z,16.41
2022-09-14T02:38:29.844Z,16.41
2022-09-14T02:42:08.108Z,16.34
2022-09-14T02:45:27.020Z,16.40
2022-09-14T02:48:48.892Z,16.37
2022-09-14T02:52:08.751Z,16.39
2022-09-14T02:55:22.818Z,16.44
2022-09-14T02:58:37.165Z,16.45
2022-09-14T03:01:45.518Z,16.48
2022-09-14T03:04:53.792Z,16.50
2022-09-14T03:08:07.446Z,16.54
2022-09-14T03:11:16.107Z,16.48
2022-09-14T03:14:24.419Z,16.55
2022-09-14T03:17:32.768Z,16.56
2022-09-14T03:20:41.280Z,16.61
2022-09-14T03:23:55.162Z,16.68
2022-09-14T03:27:03.504Z,16.70
2022-09-14T03:30:12.986Z,16.70
2022-09-14T03:33:21.125Z,16.65
2022-09-14T03:36:32.441Z,16.66
2022-09-14T03:39:42.128Z,16.73
2022-09-14T03:42:52.675Z,16.78
2022-09-14T03:46:07.414Z,16.79
2022-09-14T03:49:15.919Z,16.77
2022-09-14T03:52:24.356Z,16.80
2022-09-14T03:55:34.365Z,16.84
2022-09-14T03:58:46.958Z,16.80
2022-09-14T04:01:56.950Z,16.78
2022-09-14T04:05:06.193Z,16.80
2022-09-14T04:08:17.889Z,16.83
2022-09-14T04:11:28.916Z,16.82
2022-09-14T04:14:37.286Z,16.87
2022-09-14T04:17:45.573Z,16.93
2022-09-14T04:24:16.682Z,17.07
2022-09-14T04:27:26.333Z,17.07
2022-09-14T04:30:34.431Z,17.10
2022-09-14T04:33:44.779Z,17.17
2022-09-14T04:36:52.974Z,17.07
2022-09-14T04:40:01.136Z,17.23
2022-09-14T04:43:10.685Z,17.34
2022-09-14T04:46:21.462Z,17.31
2022-09-14T04:49:29.601Z,17.31
2022-09-14T04:52:38.389Z,17.29
2022-09-14T04:55:46.467Z,17.31
2022-09-14T04:58:59.953Z,17.35
2022-09-14T05:02:08.113Z,17.39
2022-09-14T05:05:16.512Z,17.31
2022-09-14T05:08:24.844Z,17.27
2022-09-14T05:11:37.489Z,17.35
2022-09-14T05:14:47.545Z,17.38
2022-09-14T05:17:55.649Z,17.41
2022-09-14T05:21:08.242Z,17.54
2022-09-14T05:24:19.250Z,17.74
2022-09-14T05:27:27.501Z,17.92
2022-09-14T05:30:40.796Z,18.13
2022-09-14T05:33:49.300Z,18.24
2022-09-14T05:36:58.016Z,18.34
2022-09-14T05:40:07.750Z,18.39
2022-09-14T05:43:16.086Z,18.45
2022-09-14T05:46:27.201Z,18.47
2022-09-14T05:49:35.357Z,18.43
2022-09-14T05:52:43.489Z,18.47
2022-09-14T05:56:01.386Z,18.60
2022-09-14T05:59:10.784Z,18.56
2022-09-14T06:02:20.276Z,18.59
2022-09-14T06:05:36.762Z,18.61
2022-09-14T06:08:50.072Z,18.67
2022-09-14T06:11:58.204Z,18.82
2022-09-14T06:15:07.846Z,18.82
2022-09-14T06:18:17.305Z,18.91
2022-09-14T06:21:31.529Z,19.03
2022-09-14T06:24:39.647Z,19.05
2022-09-14T06:27:47.724Z,19.19
2022-09-14T06:30:56.327Z,19.29
2022-09-14T06:34:06.804Z,19.39
2022-09-14T06:37:14.873Z,19.37
2022-09-14T06:40:23.128Z,19.44
2022-09-14T06:43:34.201Z,19.42
2022-09-14T06:46:46.972Z,19.35
2022-09-14T06:49:56.941Z,19.27
2022-09-14T06:53:05.879Z,19.20
2022-09-14T06:56:15.023Z,19.14
2022-09-14T06:59:23.077Z,19.09
2022-09-14T07:02:31.271Z,19.22
2022-09-14T07:05:40.752Z,19.30
2022-09-14T07:08:51.036Z,19.25
2022-09-14T07:11:59.206Z,19.25
2022-09-14T07:15:09.629Z,19.23
2022-09-14T07:18:18.178Z,19.17
2022-09-14T07:21:28.287Z,19.28
2022-09-14T07:24:36.359Z,19.29
2022-09-14T07:27:44.506Z,19.48
2022-09-14T07:30:55.872Z,19.55
2022-09-14T07:34:07.843Z,19.67
2022-09-14T07:37:17.319Z,19.95
2022-09-14T07:40:26.987Z,20.13
2022-09-14T07:43:35.846Z,20.19
2022-09-14T07:46:46.599Z,20.50
2022-09-14T07:49:54.719Z,20.57
2022-09-14T07:53:04.268Z,20.78
2022-09-14T07:56:16.510Z,21.15
2022-09-14T07:59:35.723Z,21.36
2022-09-14T08:02:52.823Z,21.70
2022-09-14T08:06:02.203Z,22.21
2022-09-14T08:09:11.583Z,22.53
2022-09-14T08:12:19.653Z,22.55
2022-09-14T08:15:28.775Z,22.63
2022-09-14T08:18:38.903Z,22.72
2022-09-14T08:21:49.044Z,22.74
2022-09-14T08:24:58.827Z,23.00
2022-09-14T08:28:07.033Z,23.43
2022-09-14T08:31:18.750Z,24.00
2022-09-14T08:34:26.932Z,24.64
2022-09-14T08:37:35.037Z,24.94
2022-09-14T08:40:47.833Z,25.38
2022-09-14T08:44:00.432Z,25.18
2022-09-14T08:47:16.607Z,25.17
2022-09-14T08:50:25.549Z,25.43
2022-09-14T08:53:40.770Z,25.74
2022-09-14T08:57:00.472Z,25.65
2022-09-14T09:00:13.886Z,25.90
2022-09-14T09:03:53.501Z,25.70
2022-09-14T09:07:13.055Z,25.68
2022-09-14T09:10:22.026Z,25.42
2022-09-14T09:13:39.110Z,25.36
2022-09-14T09:16:52.506Z,25.38
2022-09-14T09:20:14.146Z,25.63
2022-09-14T09:23:25.030Z,25.76
2022-09-14T09:26:34.252Z,25.76
2022-09-14T09:29:44.416Z,25.94
2022-09-14T09:32:52.948Z,26.07
2022-09-14T09:36:20.037Z,25.65
2022-09-14T09:39:32.123Z,24.82
2022-09-14T09:43:10.552Z,24.69
2022-09-14T09:46:20.197Z,25.20
2022-09-14T09:49:33.386Z,25.73
2022-09-14T09:52:51.996Z,26.00
2022-09-14T09:56:00.268Z,26.21
2022-09-14T09:59:29.998Z,26.39
2022-09-14T10:02:39.977Z,26.49
2022-09-14T10:06:02.049Z,26.47
2022-09-14T10:09:17.949Z,26.34
2022-09-14T10:12:27.381Z,25.91
2022-09-14T10:15:37.212Z,25.47
2022-09-14T10:18:50.573Z,25.51
2022-09-14T10:22:27.889Z,25.33
2022-09-14T10:25:37.548Z,25.38
2022-09-14T10:28:48.107Z,25.59
2022-09-14T10:32:05.076Z,25.80
2022-09-14T10:35:17.182Z,25.87
2022-09-14T10:38:33.757Z,26.31
2022-09-14T10:41:50.133Z,26.23
2022-09-14T10:45:18.561Z,26.45
2022-09-14T10:49:18.507Z,26.99
2022-09-14T10:52:50.087Z,26.49
2022-09-14T10:56:07.430Z,26.72
2022-09-14T10:59:33.388Z,26.64
2022-09-14T11:03:20.902Z,25.69
2022-09-14T11:06:46.763Z,26.45
2022-09-14T11:10:17.010Z,25.90
2022-09-14T11:13:51.945Z,25.73
2022-09-14T11:17:26.663Z,25.67
2022-09-14T11:20:58.867Z,26.12
2022-09-14T11:24:22.155Z,26.32
2022-09-14T11:27:40.897Z,25.99
2022-09-14T11:30:56.643Z,26.00
2022-09-14T11:34:22.602Z,26.15
2022-09-14T11:37:41.528Z,25.94
2022-09-14T11:40:56.874Z,25.75
2022-09-14T11:44:17.525Z,26.01
2022-09-14T11:47:27.421Z,26.01
2022-09-14T11:50:38.331Z,26.07
2022-09-14T11:53:47.609Z,26.20
2022-09-14T11:57:01.946Z,26.11
2022-09-14T12:01:00.729Z,25.95
2022-09-14T12:04:16.254Z,25.99
2022-09-14T12:08:02.986Z,26.14
2022-09-14T12:11:37.124Z,26.17
2022-09-14T12:14:46.879Z,25.90
2022-09-14T12:18:24.332Z,25.95
2022-09-14T12:21:32.665Z,26.06
2022-09-14T12:24:40.928Z,26.27
2022-09-14T12:27:51.777Z,26.16
2022-09-14T12:31:40.552Z,26.32
2022-09-14T12:35:47.292Z,26.62
2022-09-14T12:39:23.263Z,26.81
2022-09-14T12:42:32.466Z,27.03
2022-09-14T12:46:00.755Z,26.75
2022-09-14T12:49:35.484Z,26.52
2022-09-14T12:53:01.569Z,26.66
2022-09-14T12:56:23.631Z,26.35
2022-09-14T12:59:50.928Z,26.16
2022-09-14T13:03:27.496Z,25.94
2022-09-14T13:06:45.112Z,25.93
2022-09-14T13:09:58.632Z,25.85
2022-09-14T13:13:16.637Z,25.70
2022-09-14T13:16:42.093Z,25.60
2022-09-14T13:19:57.145Z,25.45
2022-09-14T13:23:20.288Z,25.19
2022-09-14T13:26:33.328Z,25.18
2022-09-14T13:29:42.303Z,25.25
2022-09-14T13:32:54.622Z,25.21
2022-09-14T13:36:05.306Z,25.03
2022-09-14T13:39:27.059Z,24.86
2022-09-14T13:42:37.019Z,24.86
2022-09-14T13:45:45.861Z,24.87
2022-09-14T13:48:55.259Z,24.98
2022-09-14T13:52:49.748Z,25.18
2022-09-14T13:55:57.923Z,25.34
2022-09-14T13:59:21.957Z,25.58
2022-09-14T14:02:33.842Z,25.50
2022-09-14T14:05:43.755Z,25.26
2022-09-14T14:09:03.987Z,25.03
2022-09-14T14:12:25.804Z,24.92
2022-09-14T14:15:42.482Z,24.78
2022-09-14T14:18:55.217Z,24.60
2022-09-14T14:22:21.370Z,24.55
2022-09-14T14:25:33.941Z,24.43
2022-09-14T14:28:43.681Z,24.29
2022-09-14T14:31:58.470Z,24.24
2022-09-14T14:35:19.566Z,24.12
2022-09-14T14:38:28.533Z,23.98
2022-09-14T14:41:39.516Z,23.68
2022-09-14T14:44:49.215Z,23.63
2022-09-14T14:48:00.857Z,23.47
2022-09-14T14:51:16.061Z,23.45
2022-09-14T14:54:25.141Z,23.43
2022-09-14T14:57:33.801Z,23.41
2022-09-14T15:00:43.069Z,23.34
2022-09-14T15:03:53.502Z,23.31
2022-09-14T15:07:03.373Z,23.26
2022-09-14T15:10:18.195Z,23.11
2022-09-14T15:13:26.517Z,23.07
2022-09-14T15:16:34.917Z,23.07
2022-09-14T15:19:44.705Z,23.05
2022-09-14T15:22:53.137Z,23.04
2022-09-14T15:26:01.588Z,22.95
2022-09-14T15:29:13.211Z,22.86
2022-09-14T15:32:21.782Z,22.55
2022-09-14T15:35:31.762Z,22.52
2022-09-14T15:38:40.243Z,22.32
2022-09-14T15:41:49.254Z,22.20
2022-09-14T15:44:57.637Z,22.09
2022-09-14T15:48:06.450Z,21.80
2022-09-14T15:51:19.665Z,21.67
2022-09-14T15:54:54.621Z,21.30
2022-09-14T15:58:03.621Z,21.18
2022-09-14T16:01:15.692Z,20.89
2022-09-14T16:04:24.315Z,20.49
2022-09-14T16:07:34.211Z,20.22
2022-09-14T16:10:42.553Z,19.95
2022-09-14T16:13:52.323Z,19.88
2022-09-14T16:17:01.113Z,20.00
2022-09-14T16:20:11.013Z,20.06
2022-09-14T16:23:21.537Z,20.07
2022-09-14T16:26:32.853Z,20.32
2022-09-14T16:29:41.651Z,20.39
2022-09-14T16:32:49.949Z,20.39
2022-09-14T16:36:05.260Z,20.03
2022-09-14T16:39:18.159Z,19.58
2022-09-14T16:42:27.068Z,19.48
2022-09-14T16:45:35.352Z,19.47
2022-09-14T16:48:50.109Z,19.46
2022-09-14T16:52:00.803Z,19.41
2022-09-14T16:55:11.070Z,19.52
2022-09-14T16:58:19.180Z,19.46
2022-09-14T17:01:30.910Z,19.51
2022-09-14T17:04:39.445Z,19.57
2022-09-14T17:07:48.074Z,19.52
2022-09-14T17:10:58.200Z,19.52
2022-09-14T17:14:07.881Z,19.43
2022-09-14T17:17:16.136Z,19.35
2022-09-14T17:20:24.280Z,19.31
2022-09-14T17:23:32.901Z,19.24
2022-09-14T17:26:43.330Z,19.16
2022-09-14T17:29:53.087Z,18.90
2022-09-14T17:33:01.914Z,18.47
2022-09-14T17:36:12.214Z,18.32
2022-09-14T17:39:20.578Z,18.35
2022-09-14T17:42:30.194Z,18.38
2022-09-14T17:45:38.979Z,18.24
2022-09-14T17:48:47.301Z,18.24
2022-09-14T17:51:55.844Z,18.17
2022-09-14T17:55:04.615Z,18.12
2022-09-14T17:58:19.439Z,18.09
2022-09-14T18:01:28.875Z,18.09
2022-09-14T18:04:37.697Z,18.03
2022-09-14T18:07:46.789Z,18.02
2022-09-14T18:10:56.372Z,17.97
2022-09-14T18:14:07.295Z,17.87
2022-09-14T18:17:17.059Z,17.75
2022-09-14T18:20:25.652Z,17.74
2022-09-14T18:23:35.871Z,17.72
2022-09-14T18:26:46.378Z,17.67
2022-09-14T18:29:56.246Z,17.82
2022-09-14T18:33:04.906Z,17.85
2022-09-14T18:36:15.196Z,17.77
2022-09-14T18:39:23.973Z,17.76
2022-09-14T18:42:32.256Z,17.74
2022-09-14T18:45:43.768Z,17.77
2022-09-14T18:48:53.347Z,17.72
2022-09-14T18:52:02.170Z,17.68
2022-09-14T18:55:11.491Z,17.66
2022-09-14T18:58:19.885Z,17.74
2022-09-14T19:01:30.045Z,17.77
2022-09-14T19:04:38.837Z,17.88
2022-09-14T19:07:47.148Z,17.82
2022-09-14T19:10:56.126Z,17.78
2022-09-14T19:14:10.515Z,17.89
2022-09-14T19:17:22.660Z,17.86
2022-09-14T19:20:48.705Z,17.91
2022-09-14T19:24:06.943Z,18.01
2022-09-14T19:27:15.705Z,17.91
2022-09-14T19:30:24.093Z,17.90
2022-09-14T19:33:34.314Z,17.92
2022-09-14T19:36:43.368Z,18.00
2022-09-14T19:39:52.054Z,17.97
2022-09-14T19:43:00.560Z,17.99
2022-09-14T19:46:11.713Z,17.96
2022-09-14T19:49:25.030Z,17.91
2022-09-14T19:52:33.448Z,17.97
2022-09-14T19:55:41.657Z,17.83
2022-09-14T19:58:53.629Z,17.81
2022-09-14T20:02:02.363Z,17.94
2022-09-14T20:05:12.079Z,17.92
2022-09-14T20:08:20.218Z,17.76
2022-09-14T20:11:31.408Z,17.73
2022-09-14T20:14:39.535Z,17.81
2022-09-14T20:17:47.755Z,17.84
2022-09-14T20:20:57.373Z,17.75
2022-09-14T20:24:16.558Z,17.73
2022-09-14T20:27:25.098Z,17.75
2022-09-14T20:30:33.275Z,17.67
2022-09-14T20:33:41.883Z,17.53
2022-09-14T20:36:54.186Z,17.39
2022-09-14T20:40:03.092Z,17.45
2022-09-14T20:43:11.440Z,17.40
2022-09-14T20:46:23.074Z,17.34
2022-09-14T20:49:31.269Z,17.30
2022-09-14T20:52:40.904Z,17.35
2022-09-14T20:55:49.487Z,17.45
2022-09-14T20:59:00.066Z,17.37
2022-09-14T21:02:08.433Z,17.44
2022-09-14T21:05:16.782Z,17.43
2022-09-14T21:08:26.539Z,17.39
2022-09-14T21:11:35.690Z,17.37
2022-09-14T21:14:45.225Z,17.35
2022-09-14T21:17:53.865Z,17.28
2022-09-14T21:21:07.027Z,17.30
2022-09-14T21:24:22.896Z,17.36
2022-09-14T21:27:32.934Z,17.43
2022-09-14T21:30:41.419Z,17.52
2022-09-14T21:33:54.232Z,17.49
2022-09-14T21:37:02.542Z,17.55
2022-09-14T21:40:12.573Z,17.54
2022-09-14T21:43:21.081Z,17.69
2022-09-14T21:46:29.677Z,17.60
2022-09-14T21:49:37.809Z,17.63
2022-09-14T21:52:46.138Z,17.65
2022-09-14T21:55:55.705Z,17.68
2022-09-14T21:59:07.585Z,17.69
2022-09-14T22:02:16.202Z,17.61
2022-09-14T22:05:33.183Z,17.48
2022-09-14T22:08:42.372Z,17.32
2022-09-14T22:11:52.648Z,17.11
2022-09-14T22:15:01.009Z,17.29
2022-09-14T22:18:09.416Z,17.00
2022-09-14T22:21:19.308Z,16.86
2022-09-14T22:24:36.377Z,16.79
2022-09-14T22:27:47.230Z,16.69
2022-09-14T22:30:56.438Z,16.77
2022-09-14T22:34:05.215Z,16.71
2022-09-14T22:37:13.416Z,16.78
2022-09-14T22:40:21.730Z,16.59
2022-09-14T22:43:32.950Z,16.66
2022-09-14T22:46:41.648Z,16.75
2022-09-14T22:49:50.381Z,16.69
2022-09-14T22:52:58.941Z,16.59
2022-09-14T22:56:15.765Z,16.66
2022-09-14T22:59:25.281Z,16.64
2022-09-14T23:02:33.499Z,16.61
2022-09-14T23:05:50.326Z,16.70
2022-09-14T23:09:00.382Z,16.70
2022-09-14T23:12:08.687Z,16.63
2022-09-14T23:15:18.593Z,16.70
2022-09-14T23:18:26.752Z,16.72
2022-09-14T23:21:35.855Z,16.67
2022-09-14T23:24:44.236Z,16.63
2022-09-14T23:27:52.494Z,16.64
2022-09-14T23:31:02.751Z,16.53
2022-09-14T23:34:11.194Z,16.61
2022-09-14T23:37:20.472Z,16.70
2022-09-14T23:40:31.356Z,16.61
2022-09-14T23:43:39.559Z,16.60
2022-09-14T23:46:49.131Z,16.63
2022-09-14T23:49:57.498Z,16.75
2022-09-14T23:53:06.634Z,16.71
2022-09-14T23:56:15.566Z,16.69
2022-09-14T23:59:23.884Z,16.78
